Date,TemperatureHighF,TemperatureAvgF,TemperatureLowF,DewpointHighF,DewpointAvgF,DewpointLowF,HumidityHigh,HumidityAvg,HumidityLow,PressureMaxIn,PressureMinIn,WindSpeedMaxMPH,WindSpeedAvgMPH,GustSpeedMaxMPH,PrecipitationSumIn
2013-1-1,35.9,28.7,16.9,24.1,17.2,4.0,76,62,49,29.87,29.70,12,2,12,0.00
2013-1-2,29.0,19.7,9.3,13.0,6.6,-0.1,71,57,45,30.03,29.85,10,3,10,0.00
2013-1-3,26.0,15.9,5.8,9.5,1.6,-9.4,68,53,34,30.06,29.93,9,1,9,0.00
2013-1-4,36.4,26.4,17.5,23.5,17.0,9.5,78,68,56,29.93,29.79,15,1,15,0.00
2013-1-5,39.7,29.9,22.7,24.2,18.5,13.9,71,63,47,30.19,29.83,13,2,13,0.00
2013-1-6,41.1,31.1,24.2,28.9,23.2,15.9,84,73,59,30.13,29.87,12,1,12,0.00
2013-1-7,40.0,30.2,22.2,26.0,20.4,13.6,82,68,47,30.32,29.92,10,1,10,0.00
2013-1-8,43.9,31.5,20.0,28.3,22.9,13.2,83,71,53,30.31,30.23,14,2,14,0.00
2013-1-9,41.2,34.6,26.3,32.5,27.2,21.8,86,74,58,30.31,30.00,12,2,12,0.00
2013-1-10,43.1,36.7,27.8,30.0,22.9,19.6,76,58,42,30.46,30.06,15,2,15,0.00
2013-1-11,38.1,32.2,25.0,34.4,24.9,18.6,87,75,61,30.45,30.09,9,1,9,0.06
2013-1-12,44.2,39.3,36.1,39.7,35.6,32.5,90,86,83,30.11,30.02,4,0,4,0.00
2013-1-13,50.9,43.4,38.0,45.6,39.9,33.6,92,87,78,30.09,29.94,7,1,7,0.00
2013-1-14,55.6,45.6,34.4,50.2,38.8,25.4,92,78,52,30.21,29.84,12,2,12,0.02
2013-1-15,37.5,33.8,31.2,28.6,25.8,22.8,85,73,61,30.25,30.13,6,0,6,0.00
2013-1-16,33.9,31.7,28.7,30.2,27.7,23.3,90,85,70,30.16,29.72,6,0,6,0.00
2013-1-17,40.9,32.3,26.8,30.7,24.5,13.7,91,74,53,30.02,29.78,12,1,12,0.00
2013-1-18,27.5,21.1,13.8,14.9,3.5,-4.1,66,47,32,30.38,29.94,13,3,13,0.00
2013-1-19,39.9,32.7,15.5,26.9,20.5,5.4,69,61,50,30.29,29.83,22,5,22,0.01
2013-1-20,47.5,37.3,25.2,30.1,22.3,5.3,69,55,33,29.89,29.55,20,4,20,0.00
2013-1-21,29.8,23.9,16.9,14.7,8.9,2.3,68,53,40,30.01,29.69,8,1,8,0.00
2013-1-22,24.5,17.6,9.6,13.7,-0.2,-9.9,71,46,31,30.01,29.67,14,3,14,0.01
2013-1-23,18.2,9.6,3.6,-4.6,-8.1,-11.4,59,44,32,30.07,29.99,12,2,12,0.00
2013-1-24,19.2,9.2,0.0,-3.1,-8.8,-12.0,59,44,28,30.18,30.01,14,3,14,0.00
2013-1-25,23.5,15.2,6.9,9.7,-2.3,-8.0,75,47,30,30.25,29.95,9,2,9,0.00
2013-1-26,25.2,15.4,9.1,9.4,3.3,-1.6,79,60,38,30.20,29.91,12,2,12,0.00
2013-1-27,30.3,18.9,10.2,5.1,0.9,-3.1,67,47,30,30.40,30.20,10,2,10,0.00
2013-1-28,31.6,25.4,16.0,28.6,15.0,-2.0,89,66,38,30.38,29.90,8,1,8,0.00
2013-1-29,39.8,33.5,29.0,31.7,29.2,25.9,90,84,70,30.10,29.91,6,0,6,0.09
2013-1-30,55.2,46.6,34.7,52.5,42.9,31.6,92,87,75,30.06,29.39,17,5,17,0.03
2013-1-31,57.1,45.4,27.7,54.6,33.2,9.6,92,65,38,29.57,28.98,31,10,31,0.24
2013-2-1,32.3,25.2,17.8,13.5,7.5,1.1,59,47,33,30.04,29.57,20,5,20,0.00
2013-2-2,30.9,22.3,13.3,14.9,7.8,2.3,73,54,36,30.17,29.97,12,3,12,0.00
2013-2-3,31.9,22.9,15.6,16.8,13.3,9.7,80,67,49,29.97,29.67,7,1,7,0.00
2013-2-4,32.0,22.6,16.5,11.5,7.8,3.1,72,54,36,29.87,29.67,15,2,15,0.00
2013-2-5,26.8,23.5,20.8,18.0,13.2,5.4,79,65,50,29.92,29.83,6,1,6,0.00
2013-2-6,38.2,28.9,21.7,23.6,15.9,0.3,82,60,36,30.24,29.82,12,2,12,0.02
2013-2-7,33.9,24.3,15.5,11.4,5.5,1.5,57,45,32,30.43,30.24,10,2,10,0.00
2013-2-8,31.5,27.1,20.8,24.5,18.3,7.2,81,69,48,30.34,29.47,18,6,18,0.00
2013-2-9,26.6,20.2,12.7,15.9,7.0,-4.9,81,58,36,30.16,29.52,22,7,22,0.00
2013-2-10,36.1,20.6,7.7,8.0,0.5,-7.1,59,42,27,30.35,30.16,12,2,12,0.01
2013-2-11,40.1,33.6,20.5,35.9,26.7,8.0,89,76,58,30.25,29.58,10,2,10,0.13
2013-2-12,42.9,36.4,31.0,35.5,27.2,21.8,89,70,51,29.85,29.59,14,1,14,0.00
2013-2-13,44.9,35.0,29.0,25.0,21.7,18.0,71,59,42,29.82,29.61,9,1,9,0.00
2013-2-14,44.7,33.3,23.7,24.6,20.8,15.7,83,62,39,29.92,29.64,6,1,6,0.01
2013-2-15,48.3,37.1,27.5,34.0,28.3,19.5,87,71,55,29.94,29.85,12,2,12,0.00
2013-2-16,35.9,32.6,30.5,31.0,27.8,26.3,87,82,71,29.87,29.82,10,1,10,0.02
2013-2-17,27.8,20.4,12.6,4.8,0.8,-3.4,54,42,33,29.70,29.42,20,8,20,0.02
2013-2-18,31.0,19.6,10.9,4.7,0.2,-3.4,54,43,27,30.10,29.70,17,5,17,0.00
2013-2-19,44.0,32.7,18.2,36.9,23.1,4.8,87,68,52,30.11,29.52,14,2,14,0.10
2013-2-20,37.9,29.8,21.4,33.0,15.3,5.4,87,56,37,29.78,29.53,14,4,14,0.01
2013-2-21,32.4,23.5,18.3,13.4,9.5,6.7,66,55,42,30.17,29.75,15,5,15,0.00
2013-2-22,42.0,28.8,18.9,21.9,14.9,6.3,63,56,40,30.31,30.16,12,2,12,0.00
2013-2-23,38.2,33.9,31.3,27.0,23.5,18.5,76,65,58,30.23,29.76,13,2,13,0.01
2013-2-24,40.4,34.6,30.5,31.7,26.9,21.2,77,73,67,29.83,29.62,8,1,8,0.01
2013-2-25,43.7,34.3,26.8,28.5,23.3,16.3,81,64,48,30.17,29.83,6,0,6,0.01
2013-2-26,42.6,35.7,31.6,28.9,24.6,22.3,72,64,54,30.25,29.99,12,2,12,0.01
2013-2-27,41.8,38.2,33.5,35.8,32.6,26.0,84,80,72,30.00,29.51,18,5,18,0.54
2013-2-28,48.4,37.7,32.7,37.0,31.5,28.1,84,78,63,29.56,29.47,4,0,4,0.00
2013-3-1,47.2,38.0,32.5,30.7,26.3,21.5,84,64,44,29.64,29.48,12,1,12,0.00
2013-3-2,38.7,34.3,30.5,24.4,21.9,19.0,71,60,51,29.64,29.57,8,1,8,0.00
2013-3-3,38.9,31.0,27.2,22.6,20.2,17.0,75,64,48,29.60,29.52,8,3,8,0.00
2013-3-4,40.2,30.6,24.1,21.7,16.9,13.1,70,57,44,29.72,29.58,16,4,16,0.00
2013-3-5,47.8,35.1,25.6,25.9,19.9,13.4,67,54,41,29.99,29.72,12,2,12,0.00
2013-3-6,42.4,35.9,33.1,32.6,27.9,23.9,79,73,59,29.96,29.87,17,6,17,0.01
2013-3-7,37.6,32.7,30.1,27.0,25.4,22.1,83,74,61,29.95,29.85,16,5,16,0.01
2013-3-8,36.4,32.6,30.0,29.3,26.0,21.2,82,77,65,30.07,29.84,10,1,10,0.01
2013-3-9,52.2,37.9,26.9,24.5,20.7,16.0,71,52,31,30.27,30.06,10,2,10,0.00
2013-3-10,51.0,36.5,23.7,29.2,23.9,14.5,77,61,41,30.32,30.23,7,2,7,0.00
2013-3-11,50.7,40.4,33.9,35.8,31.4,27.6,83,71,49,30.26,30.06,12,3,12,0.00
2013-3-12,50.6,45.5,40.0,45.0,38.4,29.6,84,77,64,30.07,29.66,22,6,22,0.01
2013-3-13,51.6,40.5,32.9,31.2,24.9,18.3,75,55,34,29.76,29.68,12,3,12,0.00
2013-3-14,35.9,29.9,25.6,23.0,12.0,6.1,72,48,35,29.79,29.70,15,4,15,0.01
2013-3-15,44.5,31.7,22.5,24.1,13.3,4.3,70,47,32,29.82,29.61,15,5,15,0.00
2013-3-16,39.7,33.0,26.1,24.2,15.8,9.1,75,50,31,29.81,29.66,9,2,9,0.00
2013-3-17,38.7,30.3,22.6,23.7,9.0,3.6,74,42,28,30.22,29.81,16,4,16,0.00
2013-3-18,40.4,29.4,17.7,22.5,8.5,-0.6,74,43,24,30.35,30.06,13,3,13,0.00
2013-3-19,39.7,33.1,29.4,32.0,27.0,22.3,84,78,73,30.06,29.54,15,4,15,0.13
2013-3-20,44.2,32.8,24.4,26.9,17.9,13.5,83,56,34,29.74,29.64,15,4,15,0.00
2013-3-21,40.8,31.0,25.9,22.7,18.4,10.6,77,60,40,29.75,29.54,8,1,8,0.00
2013-3-22,44.2,31.6,19.2,20.2,14.1,6.1,62,49,34,29.73,29.58,12,2,12,0.00
2013-3-23,46.7,35.2,28.5,22.0,17.9,14.0,64,50,33,29.78,29.64,15,5,15,0.00
2013-3-24,48.7,36.9,25.8,23.8,19.4,14.3,66,50,35,29.81,29.65,12,2,12,0.00
2013-3-25,46.2,36.6,30.0,26.3,22.5,18.2,68,57,44,29.69,29.39,14,3,14,0.00
2013-3-26,49.4,38.3,30.6,27.9,22.6,14.5,69,54,37,29.75,29.47,12,2,12,0.00
2013-3-27,56.4,40.2,27.2,27.6,19.4,12.2,58,44,31,29.83,29.72,10,2,10,0.00
2013-3-28,51.3,40.9,32.2,33.2,27.1,19.0,76,59,39,29.99,29.82,9,2,9,0.01
2013-3-29,60.0,45.8,34.6,32.2,27.2,23.1,70,50,33,30.02,29.94,8,2,8,0.00
2013-3-30,60.5,45.9,34.0,28.0,23.1,15.2,70,43,23,30.06,29.97,13,2,13,0.00
2013-3-31,59.4,45.6,32.4,37.5,25.4,14.2,77,46,30,30.07,29.60,15,5,15,0.00
2013-4-1,65.8,46.1,31.6,43.5,34.5,14.5,86,66,41,29.77,29.49,14,4,14,0.09
2013-4-2,45.1,33.8,23.9,17.0,12.7,6.5,71,43,25,29.92,29.77,16,4,16,0.00
2013-4-3,48.9,35.2,25.1,17.0,11.8,6.6,53,39,25,30.15,29.92,16,5,16,0.00
2013-4-4,58.6,40.0,24.9,27.6,18.7,10.1,68,44,24,30.27,30.01,13,4,13,0.00
2013-4-5,63.9,45.4,36.4,30.4,24.6,11.4,73,48,22,30.01,29.62,13,4,13,0.00
2013-4-6,51.5,38.9,30.0,20.9,11.2,3.7,61,34,18,30.26,29.86,16,4,16,0.00
2013-4-7,59.0,42.9,28.2,35.3,27.0,11.3,78,55,36,30.25,29.97,18,6,18,0.00
2013-4-8,72.6,53.5,39.1,40.2,36.4,32.7,82,56,29,30.03,29.91,8,1,8,0.01
2013-4-9,79.2,60.9,47.3,50.6,40.8,34.5,70,50,31,30.00,29.84,14,3,14,0.00
2013-4-10,70.0,56.0,47.1,49.3,41.9,34.4,78,60,44,29.94,29.78,13,2,13,0.39
2013-4-11,63.4,52.4,45.1,40.7,34.9,27.4,66,52,41,30.05,29.75,9,2,9,0.01
2013-4-12,46.2,40.4,36.8,32.6,28.0,23.3,81,62,48,30.06,29.69,16,6,16,0.00
2013-4-13,57.2,44.8,35.8,36.3,33.0,30.0,83,65,40,29.88,29.66,12,2,12,0.00
2013-4-14,58.0,44.9,35.5,35.6,28.4,20.4,74,54,33,30.17,29.87,12,2,12,0.00
2013-4-15,64.3,47.0,33.5,36.3,28.3,21.2,69,50,32,30.33,30.16,9,3,9,0.00
2013-4-16,69.8,51.9,36.7,47.2,39.9,29.4,84,65,41,30.33,30.06,16,6,16,0.00
2013-4-17,71.1,57.6,44.5,48.5,36.6,28.3,80,49,23,30.28,30.05,13,3,13,0.01
2013-4-18,65.3,51.8,38.4,40.0,34.4,30.1,78,54,29,30.34,30.09,17,5,17,0.00
2013-4-19,74.3,60.4,52.3,60.0,51.8,39.0,90,74,50,30.09,29.62,18,7,18,0.01
2013-4-20,61.3,52.7,40.0,58.0,36.6,21.8,90,58,33,30.21,29.59,16,4,16,0.19
2013-4-21,57.8,43.4,31.0,26.6,20.7,14.2,62,42,26,30.59,30.21,14,4,14,0.00
2013-4-22,63.3,45.9,30.9,34.5,27.3,23.2,79,51,27,30.63,30.48,15,5,15,0.00
2013-4-23,43.4,40.1,36.2,35.3,31.1,22.6,78,70,54,30.48,30.01,12,4,12,0.00
2013-4-24,79.0,55.0,40.3,48.9,39.9,33.1,81,61,31,30.01,29.80,12,5,12,0.00
2013-4-25,65.5,53.4,43.3,46.8,32.3,18.8,83,49,23,30.21,29.82,12,4,12,0.03
2013-4-26,73.2,54.5,38.6,38.0,28.4,20.7,59,38,23,30.35,30.21,8,2,8,0.00
2013-4-27,72.3,53.0,36.4,42.1,34.6,28.9,82,53,27,30.36,30.24,10,2,10,0.00
2013-4-28,75.2,55.4,38.2,42.4,33.9,26.0,81,48,25,30.28,30.18,15,3,15,0.00
2013-4-29,70.3,55.6,46.1,43.3,36.7,25.3,79,53,24,30.22,30.17,12,3,12,0.00
2013-4-30,77.4,58.1,43.7,40.8,31.6,21.8,62,39,21,30.31,30.19,12,2,12,0.00
2013-5-1,79.4,56.7,38.2,47.4,34.1,23.4,71,45,25,30.44,30.30,10,2,10,0.00
2013-5-2,85.2,61.3,42.1,46.4,38.7,30.9,70,47,24,30.41,30.27,9,2,9,0.00
2013-5-3,74.8,57.4,42.0,43.7,36.6,27.5,68,47,31,30.43,30.31,12,2,12,0.00
2013-5-4,77.8,56.6,41.1,44.4,35.7,20.8,76,50,26,30.33,30.19,12,2,12,0.00
2013-5-5,74.3,52.3,35.6,43.2,34.5,24.2,79,53,28,30.25,30.15,9,1,9,0.00
2013-5-6,80.1,59.2,44.0,50.1,41.7,33.1,78,54,31,30.22,30.11,9,1,9,0.00
2013-5-7,82.1,61.8,44.2,56.5,48.8,39.3,85,65,39,30.14,30.07,10,1,10,0.00
2013-5-8,72.6,62.2,55.4,59.2,55.6,50.9,89,79,61,30.12,29.99,16,3,16,0.25
2013-5-9,66.0,57.5,53.5,58.2,53.9,50.3,91,88,74,30.00,29.82,4,0,4,0.52
2013-5-10,84.3,65.9,50.8,58.7,52.5,48.0,91,66,35,29.93,29.86,8,1,8,0.00
2013-5-11,66.5,60.7,57.0,52.8,49.6,45.8,78,67,59,29.89,29.64,13,2,13,0.14
2013-5-12,75.1,60.5,47.5,51.1,44.0,27.6,67,55,37,29.80,29.56,9,1,9,0.00
2013-5-13,65.5,50.0,39.2,35.0,30.0,24.7,69,48,29,30.00,29.80,9,1,9,0.00
2013-5-14,63.5,48.3,37.3,33.1,27.4,23.1,62,45,32,30.01,29.95,7,1,7,0.00
2013-5-15,62.9,50.5,38.3,47.3,38.2,26.0,79,64,38,30.02,29.65,14,2,14,0.02
2013-5-16,86.0,66.8,48.4,50.4,46.3,41.7,81,52,26,29.78,29.64,12,1,12,0.00
2013-5-17,76.1,60.4,48.6,45.1,40.9,34.6,75,50,30,30.18,29.78,7,1,7,0.00
2013-5-18,76.0,58.7,44.9,48.7,44.3,40.0,85,62,31,30.26,30.17,10,1,10,0.00
2013-5-19,62.1,54.9,47.9,52.2,48.2,43.0,84,79,65,30.31,30.15,8,1,8,0.03
2013-5-20,83.9,66.9,55.9,67.0,58.9,49.5,88,77,54,30.15,29.91,8,1,8,0.01
2013-5-21,91.3,72.3,58.2,70.8,62.4,45.8,91,73,46,29.94,29.80,9,1,9,0.02
2013-5-22,77.0,63.8,53.1,65.1,54.9,42.5,86,73,64,29.93,29.80,8,1,8,0.08
2013-5-23,71.9,66.2,63.8,62.4,58.3,54.6,80,76,68,29.88,29.75,14,3,14,0.32
2013-5-24,71.8,60.7,46.5,58.4,51.1,38.0,82,71,56,29.80,29.61,10,1,10,0.73
2013-5-25,49.4,45.5,41.3,42.4,38.5,30.0,83,77,63,29.78,29.71,10,2,10,0.60
2013-5-26,58.7,48.6,40.9,43.5,35.3,29.7,73,60,48,30.09,29.74,9,2,9,0.04
2013-5-27,76.6,57.3,41.0,45.9,37.7,29.9,73,50,28,30.14,30.05,8,1,8,0.00
2013-5-28,76.3,59.7,45.5,51.3,43.3,33.2,69,56,33,30.18,30.12,7,1,7,0.01
2013-5-29,80.1,66.4,57.1,64.3,54.4,46.3,81,66,51,30.12,29.97,8,1,8,0.72
2013-5-30,92.4,74.7,60.6,72.0,62.1,49.6,81,66,44,30.08,30.00,5,0,5,0.04
2013-5-31,96.1,77.5,65.5,71.1,63.2,56.7,89,65,37,30.07,29.95,7,1,7,0.00
2013-6-1,92.4,75.9,64.0,69.3,61.6,54.3,83,63,41,29.98,29.88,9,2,9,0.00
2013-6-2,88.9,74.2,65.3,67.2,60.6,53.9,85,64,46,29.89,29.75,15,3,15,0.00
2013-6-3,82.0,68.6,60.9,66.2,57.6,44.1,79,69,50,29.83,29.75,4,0,4,0.34
2013-6-4,77.0,62.2,51.0,50.5,44.5,37.5,67,53,34,30.06,29.83,10,1,10,0.00
2013-6-5,79.5,62.8,49.7,51.9,45.4,40.3,74,55,30,30.15,30.05,8,1,8,0.00
2013-6-6,75.8,60.9,50.7,57.3,47.7,38.7,78,62,48,30.14,30.02,12,1,12,0.00
2013-6-7,60.4,57.5,54.5,52.8,50.2,47.5,80,77,73,30.03,29.66,6,1,6,1.23
2013-6-8,79.1,64.1,53.5,61.2,53.1,46.8,80,69,50,29.99,29.53,5,1,5,0.27
2013-6-9,83.8,67.2,55.6,58.4,53.2,48.2,79,63,38,30.15,29.99,5,0,5,0.00
2013-6-10,74.3,64.5,57.0,60.1,54.9,50.3,81,71,56,30.15,30.01,8,1,8,0.01
2013-6-11,80.3,67.3,58.5,65.1,57.8,51.6,78,72,56,29.69,29.54,10,1,8,2.52
2013-6-12,73.4,64.9,56.7,55.1,50.9,46.7,76,61,47,29.80,29.63,12,2,12,3.38
2013-6-13,59.0,55.7,51.2,51.2,48.3,44.6,79,76,70,29.78,29.52,8,1,8,0.91
2013-6-14,72.3,58.5,51.0,54.0,47.5,44.4,79,68,47,29.78,29.51,5,1,5,0.73
2013-6-15,83.2,65.8,53.9,56.3,48.6,43.2,77,56,33,29.93,29.78,7,0,7,0.00
2013-6-16,79.1,65.3,52.0,60.5,52.7,43.3,77,65,43,29.94,29.72,8,1,8,0.00
2013-6-17,89.2,70.6,59.6,66.6,58.7,52.7,88,68,42,29.89,29.79,12,1,12,0.34
2013-6-18,85.8,67.0,58.3,67.8,58.0,52.2,87,74,49,29.89,29.78,7,0,7,0.64
2013-6-19,80.0,64.9,53.4,56.1,50.7,43.5,80,62,34,30.10,29.83,5,0,5,0.00
2013-6-20,83.3,65.7,50.2,57.5,48.7,40.2,74,56,33,30.22,30.10,8,1,8,0.00
2013-6-21,87.9,69.0,55.2,67.4,56.5,47.8,79,65,46,30.23,30.18,9,1,9,0.00
2013-6-22,87.1,70.3,58.3,65.3,57.6,52.5,83,66,39,30.21,30.10,9,2,9,0.00
2013-6-23,92.0,74.5,60.6,71.9,63.9,56.1,88,71,44,30.14,30.03,12,2,12,0.00
2013-6-24,94.1,80.2,70.2,75.2,70.3,66.0,90,74,51,30.03,29.90,7,1,7,0.00
2013-6-29,82.1,75.3,70.7,66.5,64.1,62.9,78,69,57,30.05,29.15,10,4,10,0.00
2013-6-30,86.3,74.1,69.9,70.3,65.6,63.4,83,75,57,30.27,30.05,10,2,10,0.10
2013-7-1,77.0,72.9,70.5,69.6,66.8,65.0,83,81,76,30.42,30.27,14,2,14,0.07
2013-7-2,80.3,73.8,71.2,69.8,66.9,65.4,83,79,68,30.52,30.41,9,2,9,0.03
2013-7-3,88.6,75.8,69.4,74.1,68.0,63.7,88,77,58,30.57,30.50,8,2,8,0.01
2013-7-4,90.7,79.3,72.5,74.8,69.0,60.5,90,72,55,30.57,30.47,8,2,8,0.00
2013-7-5,94.2,80.2,70.3,74.6,63.8,58.4,67,58,43,30.53,30.42,8,2,8,0.00
2013-7-6,94.2,79.7,71.1,73.9,66.2,59.7,84,65,44,30.45,30.34,6,0,6,0.00
2013-7-7,95.4,80.4,71.2,71.1,65.0,59.3,82,61,43,30.38,30.25,7,1,7,0.00
2013-7-8,92.2,78.5,70.1,68.2,61.8,57.6,66,57,42,30.38,30.27,5,1,5,0.00
2013-7-9,85.0,73.5,67.9,65.1,59.7,55.8,67,62,51,30.42,30.34,8,1,4,0.00
2013-7-10,87.0,75.5,71.7,67.2,62.3,59.5,67,64,52,30.38,30.14,9,2,9,0.03
2013-7-11,81.4,74.0,67.1,64.7,60.8,54.8,67,63,55,30.26,30.13,4,0,4,0.29
2013-7-12,84.4,71.8,67.1,62.4,55.9,50.3,67,58,46,30.49,30.25,5,2,5,0.00
2013-7-13,78.2,71.4,65.5,63.9,58.9,52.4,79,65,58,30.64,30.49,4,1,4,0.06
2013-7-14,92.2,78.6,72.2,74.9,67.1,60.6,90,69,48,30.65,30.55,4,0,4,0.07
2013-7-15,93.6,79.8,71.1,74.1,70.9,68.0,91,76,50,30.56,30.46,4,0,4,0.00
2013-7-16,94.8,80.1,70.1,72.8,69.0,65.5,87,71,45,30.52,30.46,4,0,4,0.00
2013-7-17,95.0,80.5,70.1,74.4,69.9,66.1,88,72,45,30.53,30.38,7,1,7,0.00
2013-7-18,97.4,82.0,72.0,76.4,71.5,66.6,85,72,45,30.39,30.29,2,0,2,0.00
2013-7-19,97.4,82.8,73.8,77.4,73.2,69.3,87,74,50,30.30,30.11,10,2,10,0.00
2013-7-20,94.6,80.2,71.1,77.3,71.6,62.5,88,76,52,30.18,30.03,9,1,9,0.07
2013-7-21,85.7,74.4,66.7,69.8,64.5,58.0,87,72,51,30.31,30.17,6,1,6,0.14
2013-7-22,84.8,74.2,66.2,71.2,66.9,61.8,88,79,62,30.32,30.18,9,2,9,0.00
2013-7-23,87.1,75.2,70.6,75.1,69.8,66.9,91,84,62,30.18,29.89,8,2,8,0.88
2013-7-24,82.5,73.1,66.1,71.5,65.5,57.2,89,78,59,30.25,29.93,4,1,4,0.01
2013-7-25,66.1,59.9,57.5,57.6,47.3,41.9,74,63,51,30.39,30.25,7,2,7,0.51
2013-7-26,71.0,63.8,58.8,56.1,51.5,47.5,67,64,57,30.36,30.29,4,1,4,0.34
2013-7-27,84.8,71.0,62.2,65.9,55.3,50.7,67,58,42,30.39,30.32,9,2,9,0.01
2013-7-28,83.3,71.2,64.0,60.8,56.6,52.4,74,60,43,30.34,30.28,6,1,6,0.00
2013-7-29,87.5,73.6,62.6,65.2,58.4,50.2,86,60,44,30.39,30.30,9,1,9,0.02
2013-7-30,83.5,68.7,59.2,60.8,53.2,47.4,77,59,41,30.45,30.39,6,1,6,0.00
2013-7-31,83.6,69.2,59.8,60.4,54.4,46.7,79,60,41,30.46,30.38,4,0,4,0.00
2013-8-1,76.7,67.3,62.4,58.4,54.8,51.3,79,65,52,30.38,30.18,10,2,10,0.05
2013-8-2,84.8,71.1,64.4,67.3,57.4,51.6,81,62,45,30.21,30.11,7,1,7,0.33
2013-8-3,78.1,67.3,61.0,59.4,53.6,49.1,67,62,50,30.21,30.12,7,1,7,0.38
2013-8-4,81.2,65.7,56.2,57.8,50.5,45.0,82,59,42,30.25,30.13,6,1,6,0.02
2013-8-5,78.8,63.9,54.4,55.3,48.2,42.8,80,58,37,30.37,30.23,7,1,7,0.00
2013-8-6,81.3,65.0,53.1,58.8,50.3,42.4,82,60,41,30.47,30.36,7,1,7,0.00
2013-8-7,80.3,70.8,59.2,58.9,54.8,49.1,71,58,43,30.50,30.43,9,3,9,0.00
2013-8-8,80.8,71.1,66.2,65.6,59.7,55.3,73,67,55,30.43,30.36,9,3,9,0.04
2013-8-9,75.6,72.5,70.9,64.7,61.5,59.4,70,69,66,30.37,30.11,12,3,12,0.71
2013-8-10,82.7,71.1,60.0,61.9,55.9,44.8,70,59,45,30.36,30.15,6,1,6,0.08
2013-8-11,81.3,65.8,53.1,60.4,51.0,41.6,81,60,39,30.42,30.34,4,1,4,0.03
2013-8-12,83.1,69.5,60.5,59.5,54.0,48.4,72,59,39,30.36,30.25,5,1,5,0.01
2013-8-13,74.2,67.8,63.7,58.0,55.1,51.7,67,64,55,30.26,30.02,6,1,6,0.01
2013-8-14,76.0,64.7,56.3,53.8,47.9,42.9,66,55,41,30.31,30.03,8,2,8,0.00
2013-8-15,79.2,64.4,53.2,53.2,47.1,41.7,65,54,39,30.46,30.31,5,1,5,0.00
2013-8-16,81.3,65.1,53.7,55.1,48.2,41.5,65,55,38,30.53,30.44,5,1,5,0.00
2013-8-17,82.7,66.8,55.8,59.0,51.1,43.8,69,58,40,30.60,30.53,4,0,4,0.00
2013-8-18,79.6,66.5,59.1,59.4,52.4,46.8,68,61,43,30.60,30.43,4,0,4,0.00
2013-8-19,79.2,67.3,58.0,59.3,52.9,46.1,69,60,48,30.44,30.32,4,0,4,0.00
2013-8-20,86.5,71.2,61.2,62.2,55.1,49.3,82,58,41,30.45,30.34,4,0,4,0.00
2013-8-21,88.5,72.7,62.6,68.4,59.5,51.7,87,65,41,30.49,30.38,4,0,4,0.00
2013-8-22,76.3,70.5,64.9,61.9,60.3,56.1,88,71,60,30.40,30.19,6,2,6,0.06
2013-8-23,81.0,70.3,61.0,63.6,56.5,47.2,79,62,46,30.44,30.18,8,1,8,0.00
2013-8-24,80.6,65.2,54.6,53.6,47.6,43.1,66,54,37,30.67,30.44,4,1,4,0.00
2013-8-25,83.5,66.8,55.2,55.4,49.1,44.8,69,55,33,30.69,30.53,5,1,5,0.00
2013-8-26,78.5,67.1,61.2,59.1,53.0,48.1,67,61,50,30.54,30.24,9,1,9,0.56
2013-8-27,83.1,72.1,67.1,65.5,59.7,56.2,69,65,54,30.25,30.15,4,0,4,1.19
2013-8-28,86.1,71.2,65.1,72.5,62.3,54.7,93,75,51,30.25,30.18,7,1,7,0.08
2013-8-29,72.3,67.1,61.0,66.7,62.3,50.8,93,85,65,30.37,30.24,4,1,4,0.05
2013-8-30,80.3,67.9,60.1,62.9,55.9,49.9,70,66,54,30.34,30.17,5,1,5,0.03
2013-8-31,77.0,72.4,68.8,63.9,61.1,58.6,70,68,62,30.18,30.12,7,2,7,0.03
2013-9-1,79.3,73.4,70.2,65.8,62.3,59.9,71,68,59,30.20,30.13,8,2,8,0.03
2013-9-2,76.3,71.9,69.0,65.2,61.5,58.8,70,70,67,30.17,30.12,6,1,6,0.02
2013-9-3,75.9,68.8,60.1,63.1,57.0,49.8,69,66,60,30.17,30.06,7,0,7,0.46
2013-9-4,79.5,65.7,56.9,57.3,51.6,47.2,71,61,42,30.26,30.16,4,0,4,0.02
2013-9-5,74.5,62.3,51.3,55.9,48.7,39.8,70,62,43,30.44,30.20,5,1,5,0.02
2013-9-6,69.3,55.9,46.2,45.6,40.6,35.8,69,58,39,30.55,30.41,4,1,4,0.02
2013-9-7,76.8,60.4,48.1,55.5,47.1,37.1,87,64,38,30.42,30.19,7,1,7,0.01
2013-9-8,76.5,63.7,51.4,57.4,48.0,36.4,69,57,40,30.39,30.09,7,1,7,0.02
2013-9-9,69.9,55.9,43.8,50.5,44.4,35.8,84,67,41,30.54,30.38,6,1,6,0.01
2013-9-10,73.7,65.0,54.0,68.2,58.1,47.0,90,79,64,30.48,30.32,12,2,12,0.01
2013-9-11,90.4,76.3,67.6,77.3,69.3,61.3,90,80,54,30.43,30.31,8,2,8,0.01
2013-9-12,84.5,74.4,69.0,73.9,69.1,66.6,93,84,65,30.32,30.03,12,3,12,0.01
2013-9-13,77.2,68.8,58.4,66.7,59.7,44.5,91,73,58,30.10,29.92,5,2,5,0.01
2013-9-14,67.5,57.4,50.5,49.8,43.6,38.8,82,61,47,30.39,30.10,6,2,6,0.01
2013-9-15,69.3,55.9,45.9,46.6,40.7,34.3,65,57,42,30.49,30.38,5,1,5,0.01
2013-9-16,67.9,57.2,48.0,49.7,43.5,31.5,66,60,51,30.54,30.34,5,1,5,0.00
2013-9-17,64.3,50.0,40.1,40.0,33.6,27.3,81,54,39,30.71,30.55,5,2,5,0.01
2013-9-18,71.2,53.7,42.2,49.9,42.1,35.7,88,68,39,30.64,30.48,6,1,6,0.00
2013-9-19,75.5,58.3,46.4,56.5,48.0,42.0,88,71,40,30.49,30.38,7,1,7,0.01
2013-9-20,77.2,60.9,50.3,60.2,51.8,42.0,90,74,46,30.40,30.32,5,1,5,0.01
2013-9-21,72.3,62.8,53.1,63.8,57.7,49.6,90,84,73,30.34,30.01,12,4,12,0.00
2013-9-22,69.3,61.8,48.2,64.3,53.6,35.8,92,76,53,30.17,29.94,14,3,14,0.01
2013-9-23,64.0,51.5,43.5,46.9,42.7,39.0,86,73,51,30.32,30.16,7,2,7,0.01
2013-9-24,67.5,51.5,40.3,43.8,37.7,28.7,86,61,39,30.32,30.14,5,1,5,0.00
2013-9-25,69.0,55.3,44.3,46.3,40.2,33.1,66,58,43,30.27,30.18,5,1,5,0.01
2013-9-26,65.3,56.3,49.1,45.1,41.8,37.1,69,59,46,30.42,30.27,4,1,4,0.01
2013-9-27,63.6,55.7,49.4,46.3,42.1,37.7,64,60,51,30.57,30.41,4,1,4,0.00
2013-9-28,71.2,57.4,48.5,50.9,43.6,37.3,68,61,46,30.63,30.56,4,1,4,0.01
2013-9-29,68.8,56.2,49.2,46.2,41.6,38.0,72,59,38,30.56,30.41,5,1,5,0.00
2013-9-30,70.5,53.3,46.3,47.2,40.0,36.0,70,61,42,30.41,30.28,4,1,4,0.00
2013-10-1,75.6,60.0,49.4,60.1,48.1,37.8,87,66,45,30.29,30.19,4,1,4,0.00
2013-10-2,78.7,64.4,55.0,61.6,56.8,51.4,91,78,54,30.31,30.21,7,1,7,0.01
2013-10-3,74.2,60.8,50.8,55.6,50.7,44.7,87,72,39,30.41,30.31,4,1,4,0.00
2013-10-4,70.8,60.8,54.5,61.1,55.3,51.3,90,83,69,30.39,30.32,4,1,4,0.00
2013-10-5,73.9,63.2,57.8,62.8,58.0,53.7,90,84,67,30.42,30.34,4,1,4,0.01
2013-10-6,61.8,58.7,55.2,58.4,55.6,51.7,92,90,88,30.48,30.39,5,1,5,0.00
2013-10-7,72.2,65.0,58.1,66.7,61.4,53.0,92,88,81,30.39,30.14,20,4,20,0.01
2013-10-8,65.0,54.6,47.1,53.3,45.5,38.6,88,73,40,30.65,30.24,6,1,6,0.00
2013-10-9,64.4,51.8,43.7,42.5,35.9,31.3,79,55,41,30.73,30.63,7,2,7,0.01
2013-10-10,62.4,53.8,46.6,45.4,40.0,34.6,65,60,52,30.63,30.43,4,2,4,0.00
2013-10-11,69.0,58.8,51.1,50.1,44.1,37.6,65,58,50,30.43,30.37,6,2,6,0.01
2013-10-12,68.0,57.6,50.9,48.7,41.9,36.8,64,56,50,30.65,30.42,8,3,8,0.00
2013-10-13,60.4,53.5,45.5,42.4,39.4,33.6,64,59,51,30.71,30.62,6,2,6,0.00
2013-10-14,62.8,49.8,39.1,40.6,35.0,28.3,66,57,41,30.69,30.55,4,1,4,0.01
2013-10-15,70.8,56.5,46.5,47.8,40.6,35.0,65,56,41,30.57,30.45,6,1,6,0.00
2013-10-16,63.7,55.6,48.4,46.0,41.1,36.6,64,59,49,30.46,30.22,4,1,4,0.00
2013-10-17,72.1,60.7,52.7,53.0,47.3,40.9,65,62,51,30.22,30.02,8,2,8,0.01
2013-10-18,67.7,59.0,49.2,49.6,42.4,32.6,65,55,40,30.24,29.94,9,2,9,0.00
2013-10-19,63.1,52.5,41.8,40.7,35.9,29.5,63,54,41,30.28,30.05,9,2,9,0.00
2013-10-20,62.1,52.3,42.2,42.3,34.4,27.1,66,52,34,30.34,30.02,10,2,10,0.00
2013-10-21,65.8,50.0,39.0,42.7,36.5,28.8,81,61,38,30.42,30.30,8,2,8,0.00
2013-10-22,65.6,51.3,43.8,51.9,44.1,37.9,89,77,52,30.30,30.03,12,2,12,0.00
2013-10-23,48.7,42.7,35.9,38.0,30.9,23.7,81,64,50,30.10,29.90,4,1,4,0.01
2013-10-24,53.2,41.7,34.3,32.5,26.1,20.4,76,55,38,30.22,29.98,12,2,12,0.00
2013-10-25,49.9,39.2,31.8,29.0,22.9,18.8,69,53,38,30.47,30.22,10,2,10,0.00
2013-10-26,53.7,41.2,29.9,33.2,27.9,22.5,78,61,39,30.47,30.18,15,4,15,0.23
2013-10-27,55.9,45.1,36.7,35.7,31.5,25.3,82,60,39,30.39,30.12,10,3,10,0.02
2013-10-28,59.2,43.4,31.7,37.0,29.8,24.8,77,60,39,30.62,30.38,12,2,12,0.17
2013-10-29,51.0,40.2,34.3,26.9,23.7,21.2,68,53,35,30.72,30.63,5,2,5,0.01
2013-10-30,56.5,43.4,34.4,39.6,32.2,22.4,77,65,53,30.65,30.49,6,1,6,0.00
2013-10-31,59.4,51.1,40.1,50.8,43.1,33.6,80,74,67,30.53,30.11,13,4,13,0.01
2013-11-1,64.0,61.1,58.5,55.0,52.6,50.2,75,73,70,30.12,29.86,20,8,20,0.00
2013-11-2,64.7,56.8,45.5,43.4,40.8,36.6,73,56,41,30.05,29.90,20,1,20,0.29
2013-11-3,49.2,41.7,28.7,39.6,27.0,14.4,73,56,41,30.70,30.04,9,4,9,0.00
2013-11-4,44.2,32.9,25.3,18.5,15.5,13.4,67,50,31,30.97,30.70,9,2,9,0.18
2013-11-5,52.9,39.0,27.9,36.9,28.0,18.3,75,65,49,30.97,30.80,8,3,8,0.06
2013-11-6,59.5,48.6,37.2,48.3,40.1,32.2,86,73,55,30.80,30.36,13,4,13,0.00
2013-11-7,62.5,51.2,37.2,55.3,45.9,29.8,89,82,72,30.36,30.01,14,4,14,0.21
2013-11-8,49.3,38.5,31.2,31.3,26.7,21.1,81,63,45,30.42,30.15,12,4,12,0.00
2013-11-9,45.9,36.7,27.8,30.2,24.3,18.6,72,61,45,30.53,30.30,9,2,9,0.00
2013-11-10,56.9,44.1,36.4,39.0,33.8,28.9,81,68,48,30.30,30.05,12,3,12,0.03
2013-11-11,51.2,43.8,36.6,32.4,28.9,24.5,66,56,44,30.43,30.22,13,4,13,0.00
2013-11-12,47.1,33.5,21.9,34.9,22.2,12.2,80,63,52,30.50,30.19,14,3,14,0.11
2013-11-13,35.5,26.9,21.7,15.7,12.5,9.2,67,55,37,30.58,30.48,10,4,10,0.01
2013-11-14,48.7,36.9,23.6,24.6,19.4,13.8,69,50,35,30.48,30.37,12,3,12,0.00
2013-11-15,57.6,41.5,31.6,34.1,24.2,13.6,71,51,33,30.51,30.43,9,3,9,0.00
2013-11-16,58.1,45.4,37.1,38.2,31.9,24.4,84,60,44,30.61,30.50,7,1,7,0.00
2013-11-17,57.6,50.4,37.7,52.8,45.0,33.3,86,82,73,30.59,30.13,10,3,10,0.02
2013-11-18,62.9,55.8,42.8,55.5,43.3,30.2,85,64,43,30.13,29.87,17,5,17,0.39
2013-11-19,43.7,38.3,29.3,30.7,21.1,15.5,61,50,39,30.58,30.00,16,6,16,0.00
2013-11-20,40.3,29.8,23.7,17.2,14.2,11.5,63,52,33,30.90,30.58,12,3,12,0.00
2013-11-21,47.6,34.0,21.2,31.4,21.2,9.5,73,60,45,30.91,30.68,9,1,9,0.00
2013-11-22,49.4,44.4,39.2,45.2,39.7,31.3,89,84,73,30.68,30.15,5,0,5,0.14
2013-11-23,47.6,38.3,26.4,44.1,25.4,9.7,89,61,40,30.27,30.12,14,5,14,0.00
2013-11-24,26.3,21.4,18.2,11.0,3.0,-1.9,55,45,33,30.53,30.15,17,8,17,0.00
2013-11-25,32.4,23.7,14.8,17.8,7.8,0.9,64,51,39,30.68,30.53,16,4,16,0.00
2013-11-26,39.6,34.5,29.3,36.0,21.8,14.0,87,61,46,30.60,30.23,12,4,12,0.14
2013-11-27,59.4,46.9,34.1,55.8,42.4,27.5,88,84,75,30.23,29.57,24,7,24,1.66
2013-11-28,34.7,27.8,20.9,28.0,13.8,6.5,79,56,37,30.73,29.86,17,5,17,0.04
2013-11-29,34.7,25.9,19.8,17.5,13.1,9.2,70,58,45,31.00,30.72,8,1,8,0.03
2013-11-30,33.0,24.1,14.2,22.0,12.2,6.0,72,61,43,31.04,30.68,8,2,8,0.00
2013-12-1,39.6,34.1,30.9,36.1,29.1,22.0,88,82,68,30.68,30.35,5,0,5,0.06
2013-12-2,41.8,36.0,31.3,36.5,32.2,27.6,91,86,76,30.27,30.19,0,0,0,0.63
2013-12-3,46.6,35.5,30.5,35.4,29.7,24.5,88,80,57,30.27,30.16,5,1,5,0.00
2013-12-4,47.3,36.1,27.6,32.7,27.6,22.6,84,72,52,30.47,30.27,5,0,5,0.00
2013-12-5,53.2,48.1,38.3,50.2,43.4,30.4,91,84,73,30.47,30.25,10,3,10,0.03
2013-12-6,53.7,44.9,35.0,51.3,41.3,31.5,92,87,78,30.43,30.18,8,2,8,0.41
2013-12-7,37.2,32.3,26.2,31.7,25.2,16.4,90,75,60,30.76,30.35,12,3,12,0.19
2013-12-8,31.0,26.8,20.9,19.3,16.0,13.9,78,64,52,30.87,30.72,5,1,5,0.00
2013-12-9,34.1,30.7,25.0,30.4,26.1,16.2,87,83,61,30.72,30.20,8,2,8,0.09
2013-12-10,34.3,29.3,18.9,30.2,25.1,13.9,88,84,78,30.32,30.08,4,0,4,0.01
2013-12-11,31.0,21.3,13.8,21.0,14.8,9.0,82,76,64,30.53,30.31,8,1,8,0.01
2013-12-12,25.1,16.6,7.9,13.1,5.4,0.7,77,62,41,30.57,30.36,12,2,12,0.04
2013-12-13,30.2,20.1,8.7,15.1,9.5,1.3,74,63,50,30.62,30.31,14,4,14,0.01
2013-12-14,23.2,17.6,14.0,18.7,8.8,5.0,83,68,56,30.82,30.27,13,4,13,0.00
2013-12-15,32.9,27.3,19.2,30.2,23.1,15.4,90,84,76,30.28,29.71,12,3,12,0.00
2013-12-16,28.5,20.4,9.9,19.1,11.0,2.1,87,68,46,30.48,30.04,8,1,8,0.08
2013-12-17,18.2,12.7,6.4,15.1,6.2,-0.1,100,75,69,30.51,30.19,7,2,7,0.00
2013-12-18,32.7,22.0,12.5,20.3,14.5,6.7,81,73,60,30.39,30.16,10,2,10,0.13
2013-12-19,40.0,29.7,18.7,26.4,21.3,13.7,82,71,55,30.42,30.26,13,2,13,0.24
2013-12-20,45.9,37.4,30.6,32.3,28.4,23.8,78,70,57,30.41,30.24,9,2,9,0.27
2013-12-21,48.2,41.3,36.4,42.2,36.2,29.7,92,82,73,30.30,30.19,9,2,9,0.01
2013-12-22,59.5,53.8,43.5,56.3,49.9,41.0,93,87,79,30.28,30.11,13,4,13,0.00
2013-12-23,55.0,47.2,35.9,49.9,43.1,25.9,90,86,68,30.40,30.21,12,2,12,0.72
2013-12-24,36.4,31.0,22.2,26.5,18.7,6.5,74,60,46,30.53,30.33,13,4,13,0.03
2013-12-25,23.5,18.6,13.4,8.4,4.2,0.9,63,53,40,30.80,30.53,13,3,13,0.00
2013-12-26,32.7,25.2,20.1,25.6,17.2,7.6,82,72,57,30.72,30.39,9,1,9,0.00
2013-12-27,34.5,25.7,18.4,21.4,17.6,14.4,85,72,55,30.59,30.50,10,2,10,0.01
2013-12-28,46.0,32.1,21.7,29.0,22.1,16.1,82,67,47,30.53,30.32,15,2,15,0.00
2013-12-29,40.6,36.7,32.1,36.6,30.0,22.8,88,77,66,30.33,29.69,17,2,17,0.98
2013-12-30,37.4,29.2,14.5,34.2,20.4,2.0,88,71,49,30.44,29.88,13,3,13,0.01
2013-12-31,25.5,18.0,9.4,17.0,7.0,0.9,80,62,45,30.49,30.31,10,1,10,0.00
2014-1-1,28.5,21.2,11.7,14.9,8.8,3.5,75,59,41,30.65,30.48,12,2,12,0.00
2014-1-2,21.7,16.7,6.3,15.8,10.9,0.5,81,77,74,30.58,30.00,15,6,15,0.00